createdAt,value
2017-11-11T09:09:41.946Z,41.50
2017-11-11T09:13:05.314Z,41.40
2017-11-11T09:18:49.004Z,41.80
2017-11-11T09:22:12.376Z,41.80
2017-11-11T09:25:35.719Z,42.60
2017-11-11T09:28:59.091Z,42.00
2017-11-11T09:32:22.459Z,42.20
2017-11-11T09:35:45.807Z,41.90
2017-11-11T09:39:09.189Z,42.40
2017-11-11T09:42:32.559Z,42.20
2017-11-11T09:45:56.076Z,42.50
2017-11-11T09:49:19.451Z,42.80
2017-11-11T09:52:42.798Z,42.40
2017-11-11T09:56:06.175Z,42.40
2017-11-11T09:59:29.566Z,42.60
2017-11-11T10:02:53.675Z,42.80
2017-11-11T10:06:17.831Z,43.00
2017-11-11T10:09:42.736Z,42.30
2017-11-11T10:13:06.087Z,42.20
2017-11-11T10:16:29.538Z,43.10
2017-11-11T10:19:53.652Z,42.30
2017-11-11T10:23:17.066Z,42.40
2017-11-11T10:26:51.803Z,42.60
2017-11-11T10:30:15.188Z,42.50
2017-11-11T10:33:38.582Z,42.50
2017-11-11T10:37:01.991Z,42.50
2017-11-11T10:40:27.680Z,42.20
2017-11-11T10:43:52.465Z,43.10
2017-11-11T10:47:16.240Z,43.00
2017-11-11T10:50:39.847Z,42.70
2017-11-11T10:54:03.468Z,42.70
2017-11-11T10:57:26.859Z,42.60
2017-11-11T11:00:50.255Z,42.60
2017-11-11T11:04:13.607Z,42.80
2017-11-11T11:07:37.011Z,42.90
2017-11-11T11:11:00.409Z,42.80
2017-11-11T11:14:24.563Z,43.20
2017-11-11T11:17:49.472Z,43.30
2017-11-11T11:21:12.837Z,43.30
2017-11-11T11:24:36.221Z,43.30
2017-11-11T11:31:25.516Z,43.10
2017-11-11T11:34:49.442Z,42.80
2017-11-11T11:38:12.893Z,42.60
2017-11-11T11:41:37.058Z,42.70
2017-11-11T11:45:01.567Z,43.00
2017-11-11T11:48:25.736Z,42.80
2017-11-11T11:51:49.086Z,42.80
2017-11-11T11:55:12.486Z,43.30
2017-11-11T11:58:36.679Z,43.10
2017-11-11T12:02:00.883Z,42.90
2017-11-11T12:05:24.283Z,42.90
2017-11-11T12:08:47.682Z,42.70
2017-11-11T12:12:11.063Z,43.60
2017-11-11T12:15:34.969Z,43.20
2017-11-11T12:18:58.467Z,43.20
2017-11-11T12:22:21.827Z,43.30
2017-11-11T12:25:45.236Z,43.30
2017-11-11T12:29:08.676Z,43.20
2017-11-11T12:32:32.055Z,43.10
2017-11-11T12:35:55.438Z,43.10
2017-11-11T12:39:18.853Z,43.70
2017-11-11T12:42:42.273Z,43.50
2017-11-11T12:46:05.678Z,43.30
2017-11-11T12:49:29.035Z,43.00
2017-11-11T12:52:52.479Z,43.20
2017-11-11T12:56:15.877Z,43.20
2017-11-11T12:59:39.278Z,42.80
2017-11-11T13:03:03.448Z,42.50
2017-11-11T13:06:26.875Z,42.50
2017-11-11T13:09:50.276Z,42.80
2017-11-11T13:13:13.734Z,42.90
2017-11-11T13:16:37.267Z,42.60
2017-11-11T13:20:00.650Z,42.70
2017-11-11T13:23:24.071Z,42.80
2017-11-11T13:26:48.180Z,42.50
2017-11-11T13:30:11.684Z,43.10
2017-11-11T13:33:35.411Z,42.60
2017-11-11T13:36:58.964Z,42.80
2017-11-11T13:40:22.364Z,43.10
2017-11-11T13:43:46.586Z,43.70
2017-11-11T13:47:10.252Z,43.70
2017-11-11T13:50:33.708Z,44.00
2017-11-11T13:53:58.033Z,43.90
2017-11-11T13:57:21.443Z,44.00
2017-11-11T14:00:44.825Z,44.10
2017-11-11T14:04:08.199Z,44.10
2017-11-11T14:07:32.347Z,44.00
